Santa Nikolas — V7TV6 — position and weather

sailwx.info

Track history (hours):
 
Tides and Currents Weather Stations Pressure Air Temp Water Temp Dewpoint Dewpoint Depression Visibility Wind Speed Wind Dir Waves Ship Positions

Santa Nikolas

Last reported at 2017-Sep-09 04:33 UTC. Time now 2017-Oct-19 18:47 UTC.
Position N 34°51' E 139°48'.
Warning: this ship's position is 40 days out of date.

Length 190 m; draft 6.4 m.

Type: Cargo ship. MMSI: 538003892.

Date/timePositionNaut miles runAvg speedWind from/ knotsBaromVisibWave heightAir tempDewpointWater temp
2017-Sep-09 04:33N 34°51' E 139°48'413.0
2017-Sep-09 04:14N 34°52' E 139°44'313.0
2017-Sep-09 04:00N 34°54' E 139°41'714.9
2017-Sep-09 03:30N 35°02' E 139°42'815.2
2017-Sep-09 03:00N 35°09' E 139°45'612.2
2017-Sep-09 02:30N 35°15' E 139°47'612.7
2017-Sep-09 02:00N 35°20' E 139°42'613.0
2017-Sep-09 01:30N 35°26' E 139°45'714.4
2017-Sep-09 01:00N 35°30' E 139°53'510.6
2017-Sep-09 00:30N 35°27' E 139°58'0 0.3
2017-Sep-08 23:46N 35°27' E 139°58'0 0.0
2017-Sep-08 23:28N 35°27' E 139°58'0 0.0
2017-Sep-08 22:58N 35°27' E 139°58'0 0.0
2017-Sep-08 22:22N 35°27' E 139°58'0 0.0
2017-Sep-08 21:58N 35°27' E 139°58'0 0.0
2017-Sep-08 21:28N 35°27' E 139°58'0 0.0
2017-Sep-08 20:52N 35°27' E 139°58'0 0.0
2017-Sep-08 17:46N 35°27' E 139°58'0 0.0
2017-Sep-08 11:28N 35°27' E 139°58'0 0.0
2017-Sep-08 10:58N 35°27' E 139°58'0 0.0
2017-Sep-08 10:28N 35°27' E 139°58'0 0.0
2017-Sep-08 09:58N 35°27' E 139°58'0 0.0
2017-Sep-08 07:04N 35°27' E 139°58'0 0.0
2017-Sep-08 06:40N 35°27' E 139°58'0 0.0
2017-Sep-08 05:16N 35°27' E 139°58'0 0.0
2017-Sep-08 04:52N 35°27' E 139°58'0 0.0
2017-Sep-08 04:28N 35°27' E 139°58'0 0.0
2017-Sep-08 03:58N 35°27' E 139°58'0 0.0
2017-Sep-06 05:22N 35°27' E 139°58'  
2017-Sep-03 16:22N 35°27' E 139°58'0 0.0
2017-Sep-03 15:52N 35°27' E 139°58'  
2017-Sep-01 01:56N 35°27' E 139°58'3 6.3
2017-Sep-01 01:30N 35°30' E 139°57'4 8.0
2017-Sep-01 01:00N 35°29' E 139°52'5 9.5
2017-Sep-01 00:30N 35°25' E 139°48'611.5
2017-Sep-01 00:00N 35°20' E 139°44'510.5
2017-Aug-31 23:30N 35°15' E 139°47'510.3
2017-Aug-31 23:00N 35°10' E 139°47'4 7.2
2017-Aug-31 22:30N 35°07' E 139°46'3 6.4
2017-Aug-31 22:00N 35°04' E 139°44'610.9
2017-Aug-31 21:30N 34°60' E 139°40'510.7
2017-Aug-31 21:00N 34°54' E 139°38'510.7
2017-Aug-31 20:29N 34°49' E 139°37'  
Track history (hours):
 
Tides and Currents Weather Stations Pressure Air Temp Water Temp Dewpoint Dewpoint Depression Visibility Wind Speed Wind Dir Waves Ship Positions

Santa Nikolas

Last reported at 2017-Sep-09 04:33 UTC. Time now 2017-Oct-19 18:47 UTC.
Position N 34°51' E 139°48'.
Warning: this ship's position is 40 days out of date.

Length 190 m; draft 6.4 m.

Type: Cargo ship. MMSI: 538003892.

Date/timePositionNaut miles runAvg speedWind from/ knotsBaromVisibWave heightAir tempDewpointWater temp
2017-Sep-09 04:33N 34°51' E 139°48'413.0
2017-Sep-09 04:14N 34°52' E 139°44'313.0
2017-Sep-09 04:00N 34°54' E 139°41'714.9
2017-Sep-09 03:30N 35°02' E 139°42'815.2
2017-Sep-09 03:00N 35°09' E 139°45'612.2
2017-Sep-09 02:30N 35°15' E 139°47'612.7
2017-Sep-09 02:00N 35°20' E 139°42'613.0
2017-Sep-09 01:30N 35°26' E 139°45'714.4
2017-Sep-09 01:00N 35°30' E 139°53'510.6
2017-Sep-09 00:30N 35°27' E 139°58'0 0.3
2017-Sep-08 23:46N 35°27' E 139°58'0 0.0
2017-Sep-08 23:28N 35°27' E 139°58'0 0.0
2017-Sep-08 22:58N 35°27' E 139°58'0 0.0
2017-Sep-08 22:22N 35°27' E 139°58'0 0.0
2017-Sep-08 21:58N 35°27' E 139°58'0 0.0
2017-Sep-08 21:28N 35°27' E 139°58'0 0.0
2017-Sep-08 20:52N 35°27' E 139°58'0 0.0
2017-Sep-08 17:46N 35°27' E 139°58'0 0.0
2017-Sep-08 11:28N 35°27' E 139°58'0 0.0
2017-Sep-08 10:58N 35°27' E 139°58'0 0.0
2017-Sep-08 10:28N 35°27' E 139°58'0 0.0
2017-Sep-08 09:58N 35°27' E 139°58'0 0.0
2017-Sep-08 07:04N 35°27' E 139°58'0 0.0
2017-Sep-08 06:40N 35°27' E 139°58'0 0.0
2017-Sep-08 05:16N 35°27' E 139°58'0 0.0
2017-Sep-08 04:52N 35°27' E 139°58'0 0.0
2017-Sep-08 04:28N 35°27' E 139°58'0 0.0
2017-Sep-08 03:58N 35°27' E 139°58'0 0.0
2017-Sep-06 05:22N 35°27' E 139°58'  
2017-Sep-03 16:22N 35°27' E 139°58'0 0.0
2017-Sep-03 15:52N 35°27' E 139°58'  
2017-Sep-01 01:56N 35°27' E 139°58'3 6.3
2017-Sep-01 01:30N 35°30' E 139°57'4 8.0
2017-Sep-01 01:00N 35°29' E 139°52'5 9.5
2017-Sep-01 00:30N 35°25' E 139°48'611.5
2017-Sep-01 00:00N 35°20' E 139°44'510.5
2017-Aug-31 23:30N 35°15' E 139°47'510.3
2017-Aug-31 23:00N 35°10' E 139°47'4 7.2
2017-Aug-31 22:30N 35°07' E 139°46'3 6.4
2017-Aug-31 22:00N 35°04' E 139°44'610.9
2017-Aug-31 21:30N 34°60' E 139°40'510.7
2017-Aug-31 21:00N 34°54' E 139°38'510.7
2017-Aug-31 20:29N 34°49' E 139°37'  

Dump ship's entire track history